Time,TemperatureF,DewpointF,PressureIn,WindDirection,WindDirectionDegrees,WindSpeedMPH,WindSpeedGustMPH,Humidity,HourlyPrecipIn,Conditions,Clouds,dailyrainin,SoftwareType,DateUTC
2013-10-12 00:01:00,60.0,56.8,30.02,SE,135,0.0,0.0,89,0.00,,---,0.00,VWS V14.00,2013-10-12 05:01:00,
2013-10-12 00:06:00,60.0,57.1,30.01,SE,135,0.0,0.0,90,0.00,,---,0.00,VWS V14.00,2013-10-12 05:06:00,
2013-10-12 00:11:00,60.0,57.1,30.01,SE,135,0.0,0.0,90,0.00,,---,0.00,VWS V14.00,2013-10-12 05:11:00,
2013-10-12 00:16:00,60.0,57.1,30.02,SE,135,0.0,0.0,90,0.00,,---,0.00,VWS V14.00,2013-10-12 05:16:00,
2013-10-12 00:21:00,60.0,57.1,30.02,SSE,158,0.0,0.0,90,0.00,,---,0.00,VWS V14.00,2013-10-12 05:21:00,
2013-10-12 00:26:00,59.0,56.1,30.02,ESE,112,0.0,0.0,90,0.00,,---,0.00,VWS V14.00,2013-10-12 05:26:00,
2013-10-12 00:31:00,59.0,56.1,30.02,ESE,112,0.0,0.0,90,0.00,,---,0.00,VWS V14.00,2013-10-12 05:31:00,
2013-10-12 00:36:00,59.0,56.1,30.02,SE,135,3.0,4.0,90,0.00,,---,0.00,VWS V14.00,2013-10-12 05:36:00,
2013-10-12 00:41:00,59.0,56.1,30.02,SE,135,0.0,0.0,90,0.00,,---,0.00,VWS V14.00,2013-10-12 05:41:00,
2013-10-12 00:46:00,59.0,56.1,30.02,ESE,112,0.0,0.0,90,0.00,,---,0.00,VWS V14.00,2013-10-12 05:46:00,
2013-10-12 00:51:00,59.0,56.4,30.02,ESE,112,0.0,0.0,91,0.00,,---,0.00,VWS V14.00,2013-10-12 05:51:00,
2013-10-12 00:56:00,59.0,56.4,30.02,East,90,0.0,0.0,91,0.00,,---,0.00,VWS V14.00,2013-10-12 05:56:00,
2013-10-12 01:01:00,59.0,56.4,30.02,ESE,112,0.0,0.0,91,0.00,,---,0.00,VWS V14.00,2013-10-12 06:01:00,
2013-10-12 01:06:00,59.0,56.4,30.02,SSE,158,0.0,0.0,91,0.00,,---,0.00,VWS V14.00,2013-10-12 06:06:00,
2013-10-12 01:11:00,59.0,56.4,30.02,SSE,158,0.0,0.0,91,0.00,,---,0.00,VWS V14.00,2013-10-12 06:11:00,
2013-10-12 01:16:00,59.0,56.7,30.02,SSE,158,0.0,0.0,92,0.00,,---,0.00,VWS V14.00,2013-10-12 06:16:00,
2013-10-12 01:21:00,58.0,55.7,30.03,SE,135,0.0,0.0,92,0.00,,---,0.00,VWS V14.00,2013-10-12 06:21:00,
2013-10-12 01:26:00,58.0,55.7,30.03,ESE,112,0.0,0.0,92,0.00,,---,0.00,VWS V14.00,2013-10-12 06:26:00,
2013-10-12 01:31:00,58.0,55.7,30.03,ESE,112,0.0,0.0,92,0.00,,---,0.00,VWS V14.00,2013-10-12 06:31:00,
2013-10-12 01:36:00,58.0,55.7,30.02,SE,135,0.0,0.0,92,0.00,,---,0.00,VWS V14.00,2013-10-12 06:36:00,
2013-10-12 01:41:00,58.0,55.7,30.03,SE,135,0.0,0.0,92,0.00,,---,0.00,VWS V14.00,2013-10-12 06:41:00,
2013-10-12 01:46:00,58.0,55.7,30.03,SE,135,0.0,0.0,92,0.00,,---,0.00,VWS V14.00,2013-10-12 06:46:00,
2013-10-12 01:51:00,58.0,55.7,30.03,SE,135,0.0,0.0,92,0.00,,---,0.00,VWS V14.00,2013-10-12 06:51:00,
2013-10-12 01:56:00,58.0,55.7,30.03,ESE,112,0.0,0.0,92,0.00,,---,0.00,VWS V14.00,2013-10-12 06:56:00,
2013-10-12 02:01:00,58.0,55.7,30.03,SSE,158,0.0,0.0,92,0.00,,---,0.00,VWS V14.00,2013-10-12 07:01:00,
2013-10-12 02:06:00,58.0,56.0,30.03,SSE,158,0.0,0.0,93,0.00,,---,0.00,VWS V14.00,2013-10-12 07:06:00,
2013-10-12 02:11:00,58.0,56.0,30.03,ESE,112,0.0,0.0,93,0.00,,---,0.00,VWS V14.00,2013-10-12 07:11:00,
2013-10-12 02:16:00,58.0,56.0,30.03,South,180,0.0,0.0,93,0.00,,---,0.00,VWS V14.00,2013-10-12 07:16:00,
2013-10-12 02:21:00,58.0,56.0,30.03,SSE,158,0.0,0.0,93,0.00,,---,0.00,VWS V14.00,2013-10-12 07:21:00,
2013-10-12 02:26:00,58.0,56.0,30.03,ESE,112,0.0,0.0,93,0.00,,---,0.00,VWS V14.00,2013-10-12 07:26:00,
2013-10-12 02:31:00,58.0,56.0,30.03,SE,135,0.0,0.0,93,0.00,,---,0.00,VWS V14.00,2013-10-12 07:31:00,
2013-10-12 02:36:00,57.0,55.0,30.03,SSE,158,0.0,0.0,93,0.00,,---,0.00,VWS V14.00,2013-10-12 07:36:00,
2013-10-12 02:41:00,57.0,55.0,30.03,SSE,158,0.0,0.0,93,0.00,,---,0.00,VWS V14.00,2013-10-12 07:41:00,
2013-10-12 02:46:00,57.0,55.0,30.03,SE,135,3.0,3.0,93,0.00,,---,0.00,VWS V14.00,2013-10-12 07:46:00,
2013-10-12 02:51:00,57.0,55.3,30.02,SE,135,0.0,0.0,94,0.00,,---,0.00,VWS V14.00,2013-10-12 07:51:00,
2013-10-12 02:56:00,57.0,55.3,30.02,ESE,112,1.0,1.0,94,0.00,,---,0.00,VWS V14.00,2013-10-12 07:56:00,
2013-10-12 03:01:00,56.0,54.3,30.02,ESE,112,3.0,3.0,94,0.00,,---,0.00,VWS V14.00,2013-10-12 08:01:00,
2013-10-12 03:06:00,57.0,55.6,30.02,SSE,158,0.0,0.0,95,0.00,,---,0.00,VWS V14.00,2013-10-12 08:06:00,
2013-10-12 03:11:00,57.0,55.6,30.02,East,90,4.0,4.0,95,0.00,,---,0.00,VWS V14.00,2013-10-12 08:11:00,
2013-10-12 03:16:00,57.0,55.6,30.02,SE,135,0.0,0.0,95,0.00,,---,0.00,VWS V14.00,2013-10-12 08:16:00,
2013-10-12 03:21:00,57.0,55.6,30.02,SE,135,0.0,0.0,95,0.00,,---,0.00,VWS V14.00,2013-10-12 08:21:00,
2013-10-12 03:26:00,57.0,55.6,30.02,SE,135,0.0,0.0,95,0.00,,---,0.00,VWS V14.00,2013-10-12 08:26:00,
2013-10-12 03:31:00,57.0,55.3,30.02,ESE,112,5.0,5.0,94,0.00,,---,0.00,VWS V14.00,2013-10-12 08:31:00,
2013-10-12 03:36:00,57.0,55.3,30.02,ESE,112,5.0,5.0,94,0.00,,---,0.00,VWS V14.00,2013-10-12 08:36:00,
2013-10-12 03:41:00,57.0,55.3,30.02,SSE,158,2.0,3.0,94,0.00,,---,0.00,VWS V14.00,2013-10-12 08:41:00,
2013-10-12 03:46:00,57.0,55.3,30.02,South,180,0.0,3.0,94,0.00,,---,0.00,VWS V14.00,2013-10-12 08:46:00,
2013-10-12 03:51:00,57.0,55.3,30.02,ESE,112,3.0,4.0,94,0.00,,---,0.00,VWS V14.00,2013-10-12 08:51:00,
2013-10-12 03:56:00,57.0,55.3,30.02,East,90,3.0,5.0,94,0.00,,---,0.00,VWS V14.00,2013-10-12 08:56:00,
2013-10-12 04:01:00,57.0,55.6,30.02,SSE,158,3.0,4.0,95,0.00,,---,0.00,VWS V14.00,2013-10-12 09:01:00,
2013-10-12 04:06:00,57.0,55.6,30.01,ESE,112,5.0,6.0,95,0.00,,---,0.00,VWS V14.00,2013-10-12 09:06:00,
2013-10-12 04:11:00,57.0,55.3,30.02,SE,135,6.0,6.0,94,0.00,,---,0.00,VWS V14.00,2013-10-12 09:11:00,
2013-10-12 04:16:00,57.0,55.3,30.02,SE,135,5.0,5.0,94,0.00,,---,0.00,VWS V14.00,2013-10-12 09:16:00,
2013-10-12 04:21:00,57.0,55.3,30.02,ESE,112,2.0,5.0,94,0.00,,---,0.00,VWS V14.00,2013-10-12 09:21:00,
2013-10-12 04:26:00,57.0,55.3,30.02,SE,135,3.0,3.0,94,0.00,,---,0.00,VWS V14.00,2013-10-12 09:26:00,
2013-10-12 04:31:00,57.0,55.6,30.02,ESE,112,4.0,5.0,95,0.00,,---,0.00,VWS V14.00,2013-10-12 09:31:00,
2013-10-12 04:36:00,57.0,55.6,30.02,SE,135,5.0,5.0,95,0.00,,---,0.00,VWS V14.00,2013-10-12 09:36:00,
2013-10-12 04:41:00,57.0,55.6,30.02,South,180,2.0,3.0,95,0.00,,---,0.00,VWS V14.00,2013-10-12 09:41:00,
2013-10-12 04:46:00,57.0,55.6,30.02,SE,135,2.0,3.0,95,0.00,,---,0.00,VWS V14.00,2013-10-12 09:46:00,
2013-10-12 04:51:00,57.0,55.6,30.02,SE,135,6.0,7.0,95,0.00,,---,0.00,VWS V14.00,2013-10-12 09:51:00,
2013-10-12 04:56:00,57.0,55.6,30.02,SSE,158,4.0,5.0,95,0.00,,---,0.00,VWS V14.00,2013-10-12 09:56:00,
2013-10-12 05:01:00,57.0,55.6,30.02,East,90,2.0,4.0,95,0.00,,---,0.00,VWS V14.00,2013-10-12 10:01:00,
2013-10-12 05:06:00,57.0,55.6,30.02,ESE,112,3.0,4.0,95,0.00,,---,0.00,VWS V14.00,2013-10-12 10:06:00,
2013-10-12 05:11:00,57.0,55.9,30.03,SE,135,3.0,4.0,96,0.00,,---,0.00,VWS V14.00,2013-10-12 10:11:00,
2013-10-12 05:16:00,57.0,55.9,30.03,SSE,158,3.0,3.0,96,0.00,,---,0.00,VWS V14.00,2013-10-12 10:16:00,
2013-10-12 05:21:00,56.0,54.9,30.03,SE,135,3.0,4.0,96,0.00,,---,0.00,VWS V14.00,2013-10-12 10:21:00,
2013-10-12 05:26:00,56.0,54.9,30.03,SE,135,2.0,3.0,96,0.00,,---,0.00,VWS V14.00,2013-10-12 10:26:00,
2013-10-12 05:31:00,56.0,54.9,30.03,ESE,112,2.0,3.0,96,0.00,,---,0.00,VWS V14.00,2013-10-12 10:31:00,
2013-10-12 05:36:00,56.0,54.9,30.03,ESE,112,1.0,2.0,96,0.00,,---,0.00,VWS V14.00,2013-10-12 10:36:00,
2013-10-12 05:41:00,56.0,54.9,30.03,ESE,112,3.0,3.0,96,0.00,,---,0.00,VWS V14.00,2013-10-12 10:41:00,
2013-10-12 05:46:00,56.0,54.9,30.03,SE,135,3.0,4.0,96,0.00,,---,0.00,VWS V14.00,2013-10-12 10:46:00,
2013-10-12 05:51:00,56.0,55.2,30.04,SSE,158,2.0,3.0,97,0.00,,---,0.00,VWS V14.00,2013-10-12 10:51:00,
2013-10-12 05:56:00,56.0,55.2,30.04,SSE,158,2.0,2.0,97,0.00,,---,0.00,VWS V14.00,2013-10-12 10:56:00,
2013-10-12 06:01:00,56.0,55.2,30.03,SSE,158,2.0,2.0,97,0.00,,---,0.00,VWS V14.00,2013-10-12 11:01:00,
2013-10-12 06:06:00,56.0,55.2,30.04,SE,135,3.0,3.0,97,0.00,,---,0.00,VWS V14.00,2013-10-12 11:06:00,
2013-10-12 06:11:00,56.0,55.2,30.04,SSE,158,2.0,2.0,97,0.00,,---,0.00,VWS V14.00,2013-10-12 11:11:00,
2013-10-12 06:16:00,56.0,55.2,30.04,East,90,2.0,2.0,97,0.00,,---,0.00,VWS V14.00,2013-10-12 11:16:00,
2013-10-12 06:21:00,56.0,55.2,30.04,SE,135,1.0,2.0,97,0.00,,---,0.00,VWS V14.00,2013-10-12 11:21:00,
2013-10-12 06:26:00,55.0,54.2,30.04,East,90,1.0,1.0,97,0.00,,---,0.00,VWS V14.00,2013-10-12 11:26:00,
2013-10-12 06:31:00,55.0,54.5,30.04,NE,45,3.0,3.0,98,0.00,,---,0.00,VWS V14.00,2013-10-12 11:31:00,
2013-10-12 06:36:00,55.0,54.5,30.04,ENE,68,3.0,3.0,98,0.00,,---,0.00,VWS V14.00,2013-10-12 11:36:00,
2013-10-12 06:41:00,55.0,54.5,30.04,East,90,2.0,3.0,98,0.00,,---,0.00,VWS V14.00,2013-10-12 11:41:00,
2013-10-12 06:46:00,55.0,54.5,30.04,ESE,112,2.0,3.0,98,0.00,,---,0.00,VWS V14.00,2013-10-12 11:46:00,
2013-10-12 06:51:00,55.0,54.5,30.04,SE,135,2.0,3.0,98,0.00,,---,0.00,VWS V14.00,2013-10-12 11:51:00,
2013-10-12 06:56:00,55.0,54.5,30.04,ESE,112,3.0,4.0,98,0.00,,---,0.00,VWS V14.00,2013-10-12 11:56:00,
2013-10-12 07:01:00,55.0,54.7,30.03,East,90,3.0,3.0,99,0.00,,---,0.00,VWS V14.00,2013-10-12 12:01:00,
2013-10-12 07:06:00,55.0,54.7,30.04,SE,135,1.0,3.0,99,0.00,,---,0.00,VWS V14.00,2013-10-12 12:06:00,
2013-10-12 07:11:00,55.0,54.7,30.04,ESE,112,1.0,1.0,99,0.00,,---,0.00,VWS V14.00,2013-10-12 12:11:00,
2013-10-12 07:16:00,55.0,54.7,30.04,ESE,112,1.0,1.0,99,0.00,,---,0.00,VWS V14.00,2013-10-12 12:16:00,
2013-10-12 07:21:00,55.0,54.7,30.04,ESE,112,3.0,3.0,99,0.00,,---,0.00,VWS V14.00,2013-10-12 12:21:00,
2013-10-12 07:26:00,55.0,54.7,30.04,ESE,112,2.0,2.0,99,0.00,,---,0.00,VWS V14.00,2013-10-12 12:26:00,
2013-10-12 07:31:00,56.0,55.7,30.04,East,90,3.0,3.0,99,0.00,,---,0.00,VWS V14.00,2013-10-12 12:31:00,
2013-10-12 07:36:00,56.0,55.7,30.04,ESE,112,3.0,3.0,99,0.00,,---,0.00,VWS V14.00,2013-10-12 12:36:00,
2013-10-12 07:41:00,56.0,55.7,30.04,SE,135,3.0,4.0,99,0.00,,---,0.00,VWS V14.00,2013-10-12 12:41:00,
2013-10-12 07:46:00,57.0,56.4,30.05,ESE,112,4.0,4.0,98,0.00,,---,0.00,VWS V14.00,2013-10-12 12:46:00,
2013-10-12 07:51:00,57.0,56.4,30.04,SE,135,4.0,5.0,98,0.00,,---,0.00,VWS V14.00,2013-10-12 12:51:00,
2013-10-12 07:56:00,57.0,56.2,30.05,ESE,112,5.0,6.0,97,0.00,,---,0.00,VWS V14.00,2013-10-12 12:56:00,
2013-10-12 08:01:00,57.0,56.2,30.05,ESE,112,6.0,6.0,97,0.00,,---,0.00,VWS V14.00,2013-10-12 13:01:00,
2013-10-12 08:06:00,58.0,57.2,30.05,SE,135,5.0,6.0,97,0.00,,---,0.00,VWS V14.00,2013-10-12 13:06:00,
2013-10-12 08:11:00,58.0,56.9,30.06,SSE,158,3.0,3.0,96,0.00,,---,0.00,VWS V14.00,2013-10-12 13:11:00,
2013-10-12 08:16:00,58.0,56.9,30.05,ESE,112,4.0,5.0,96,0.00,,---,0.00,VWS V14.00,2013-10-12 13:16:00,
2013-10-12 08:21:00,59.0,57.6,30.05,SSE,158,5.0,5.0,95,0.00,,---,0.00,VWS V14.00,2013-10-12 13:21:00,
2013-10-12 08:26:00,59.0,57.6,30.05,SE,135,5.0,5.0,95,0.00,,---,0.00,VWS V14.00,2013-10-12 13:26:00,
2013-10-12 08:31:00,59.0,57.3,30.06,SE,135,5.0,5.0,94,0.00,,---,0.00,VWS V14.00,2013-10-12 13:31:00,
2013-10-12 08:36:00,60.0,58.0,30.06,SSE,158,6.0,6.0,93,0.00,,---,0.00,VWS V14.00,2013-10-12 13:36:00,
2013-10-12 08:41:00,60.0,58.0,30.07,ESE,112,3.0,4.0,93,0.00,,---,0.00,VWS V14.00,2013-10-12 13:41:00,
2013-10-12 08:46:00,61.0,58.7,30.07,SSW,202,3.0,3.0,92,0.00,,---,0.00,VWS V14.00,2013-10-12 13:46:00,
2013-10-12 08:51:00,60.0,57.4,30.07,SE,135,6.0,6.0,91,0.00,,---,0.00,VWS V14.00,2013-10-12 13:51:00,
2013-10-12 08:56:00,60.0,57.1,30.07,SSE,158,6.0,6.0,90,0.00,,---,0.00,VWS V14.00,2013-10-12 13:56:00,
2013-10-12 09:01:00,60.0,57.1,30.08,SE,135,0.0,0.0,90,0.00,,---,0.00,VWS V14.00,2013-10-12 14:01:00,
2013-10-12 09:05:00,60.0,57.4,30.08,East,90,0.0,0.0,91,0.00,,---,0.00,VWS V14.00,2013-10-12 14:05:00,
2013-10-12 09:10:00,61.0,58.4,30.08,SSE,158,0.0,0.0,91,0.00,,---,0.00,VWS V14.00,2013-10-12 14:10:00,
2013-10-12 09:15:00,61.0,58.4,30.08,East,90,0.0,0.0,91,0.00,,---,0.00,VWS V14.00,2013-10-12 14:15:00,
2013-10-12 09:20:00,61.0,58.0,30.08,SE,135,0.0,0.0,90,0.00,,---,0.00,VWS V14.00,2013-10-12 14:20:00,
2013-10-12 09:25:00,61.0,58.0,30.08,East,90,3.0,4.0,90,0.00,,---,0.00,VWS V14.00,2013-10-12 14:25:00,
2013-10-12 09:30:00,62.0,58.7,30.08,SSE,158,3.0,3.0,89,0.00,,---,0.00,VWS V14.00,2013-10-12 14:30:00,
2013-10-12 09:35:00,63.0,59.7,30.07,SSE,158,0.0,0.0,89,0.00,,---,0.00,VWS V14.00,2013-10-12 14:35:00,
2013-10-12 09:40:00,63.0,59.4,30.07,East,90,0.0,0.0,88,0.00,,---,0.00,VWS V14.00,2013-10-12 14:40:00,
2013-10-12 09:45:00,64.0,60.1,30.08,SSE,158,2.0,4.0,87,0.00,,---,0.00,VWS V14.00,2013-10-12 14:45:00,
2013-10-12 09:50:00,64.0,59.4,30.08,SE,135,0.0,0.0,85,0.00,,---,0.00,VWS V14.00,2013-10-12 14:50:00,
2013-10-12 09:55:00,65.0,60.4,30.08,East,90,3.0,5.0,85,0.00,,---,0.00,VWS V14.00,2013-10-12 14:55:00,
2013-10-12 10:00:00,65.0,60.0,30.08,SSE,158,0.0,0.0,84,0.00,,---,0.00,VWS V14.00,2013-10-12 15:00:00,
2013-10-12 10:05:00,65.0,59.7,30.08,SSE,158,5.0,6.0,83,0.00,,---,0.00,VWS V14.00,2013-10-12 15:05:00,
2013-10-12 10:10:00,65.0,59.4,30.08,SE,135,0.0,0.0,82,0.00,,---,0.00,VWS V14.00,2013-10-12 15:10:00,
2013-10-12 10:15:00,66.0,60.3,30.08,SSE,158,0.0,1.0,82,0.00,,---,0.00,VWS V14.00,2013-10-12 15:15:00,
2013-10-12 10:20:00,66.0,60.0,30.08,SE,135,0.0,0.0,81,0.00,,---,0.00,VWS V14.00,2013-10-12 15:20:00,
2013-10-12 10:25:00,66.0,60.0,30.08,ENE,68,0.0,0.0,81,0.00,,---,0.00,VWS V14.00,2013-10-12 15:25:00,
2013-10-12 10:30:00,67.0,61.0,30.09,SSE,158,0.0,0.0,81,0.00,,---,0.00,VWS V14.00,2013-10-12 15:30:00,
2013-10-12 10:35:00,67.0,60.6,30.09,SSW,202,0.0,0.0,80,0.00,,---,0.00,VWS V14.00,2013-10-12 15:35:00,
2013-10-12 10:40:00,67.0,60.3,30.09,SE,135,0.0,0.0,79,0.00,,---,0.00,VWS V14.00,2013-10-12 15:40:00,
2013-10-12 10:45:00,67.0,60.3,30.09,SSE,158,0.0,0.0,79,0.00,,---,0.00,VWS V14.00,2013-10-12 15:45:00,
2013-10-12 10:50:00,67.0,60.3,30.10,SSE,158,0.0,0.0,79,0.00,,---,0.00,VWS V14.00,2013-10-12 15:50:00,
2013-10-12 10:55:00,67.0,60.3,30.10,SSW,202,0.0,0.0,79,0.00,,---,0.00,VWS V14.00,2013-10-12 15:55:00,
2013-10-12 11:00:00,67.0,59.9,30.10,SSW,202,1.0,3.0,78,0.00,,---,0.00,VWS V14.00,2013-10-12 16:00:00,
2013-10-12 11:05:00,67.0,59.9,30.11,South,180,0.0,0.0,78,0.00,,---,0.00,VWS V14.00,2013-10-12 16:05:00,
2013-10-12 11:10:00,67.0,59.9,30.10,SSW,202,0.0,1.0,78,0.00,,---,0.00,VWS V14.00,2013-10-12 16:10:00,
2013-10-12 11:15:00,67.0,60.3,30.11,SW,225,0.0,0.0,79,0.00,,---,0.00,VWS V14.00,2013-10-12 16:15:00,
2013-10-12 11:20:00,67.0,60.3,30.11,South,180,0.0,0.0,79,0.00,,---,0.00,VWS V14.00,2013-10-12 16:20:00,
2013-10-12 11:25:00,67.0,60.3,30.11,South,180,0.0,0.0,79,0.00,,---,0.00,VWS V14.00,2013-10-12 16:25:00,
2013-10-12 11:30:00,67.0,60.3,30.11,SW,225,4.0,4.0,79,0.00,,---,0.00,VWS V14.00,2013-10-12 16:30:00,
2013-10-12 11:35:00,67.0,60.3,30.12,SW,225,4.0,4.0,79,0.00,,---,0.00,VWS V14.00,2013-10-12 16:35:00,
2013-10-12 11:40:00,67.0,60.3,30.12,SSW,202,0.0,0.0,79,0.00,,---,0.00,VWS V14.00,2013-10-12 16:40:00,
2013-10-12 11:45:00,67.0,60.6,30.12,South,180,0.0,3.0,80,0.00,,---,0.00,VWS V14.00,2013-10-12 16:45:00,
2013-10-12 11:50:00,67.0,61.0,30.12,SSW,202,0.0,0.0,81,0.00,,---,0.00,VWS V14.00,2013-10-12 16:50:00,
2013-10-12 11:55:00,66.0,60.3,30.13,SW,225,0.0,5.0,82,0.00,,---,0.00,VWS V14.00,2013-10-12 16:55:00,
2013-10-12 12:00:00,66.0,60.3,30.13,SW,225,0.0,6.0,82,0.00,,---,0.00,VWS V14.00,2013-10-12 17:00:00,
2013-10-12 12:05:00,66.0,60.7,30.12,SSW,202,0.0,0.0,83,0.00,,---,0.00,VWS V14.00,2013-10-12 17:05:00,
2013-10-12 12:10:00,66.0,61.0,30.12,West,270,0.0,0.0,84,0.00,,---,0.00,VWS V14.00,2013-10-12 17:10:00,
2013-10-12 12:15:00,65.0,60.0,30.12,West,270,0.0,0.0,84,0.00,,---,0.00,VWS V14.00,2013-10-12 17:15:00,
2013-10-12 12:20:00,65.0,60.4,30.11,West,270,0.0,0.0,85,0.00,,---,0.00,VWS V14.00,2013-10-12 17:20:00,
2013-10-12 12:25:00,65.0,60.4,30.11,West,270,0.0,0.0,85,0.00,,---,0.00,VWS V14.00,2013-10-12 17:25:00,
2013-10-12 12:30:00,65.0,60.7,30.11,West,270,0.0,0.0,86,0.00,,---,0.00,VWS V14.00,2013-10-12 17:30:00,
2013-10-12 12:35:00,65.0,60.4,30.11,West,270,0.0,0.0,85,0.00,,---,0.00,VWS V14.00,2013-10-12 17:35:00,
2013-10-12 12:40:00,65.0,60.7,30.11,SW,225,1.0,1.0,86,0.00,,---,0.00,VWS V14.00,2013-10-12 17:40:00,
2013-10-12 12:45:00,65.0,60.7,30.11,SSW,202,0.0,0.0,86,0.00,,---,0.00,VWS V14.00,2013-10-12 17:45:00,
2013-10-12 12:50:00,65.0,61.0,30.10,SW,225,0.0,0.0,87,0.00,,---,0.00,VWS V14.00,2013-10-12 17:50:00,
2013-10-12 12:55:00,64.0,60.4,30.10,SW,225,0.0,0.0,88,0.01,,---,0.01,VWS V14.00,2013-10-12 17:55:00,
2013-10-12 13:00:00,64.0,60.7,30.09,SSW,202,0.0,0.0,89,0.01,,---,0.01,VWS V14.00,2013-10-12 18:00:00,
2013-10-12 13:05:00,64.0,60.7,30.09,South,180,0.0,0.0,89,0.01,,---,0.01,VWS V14.00,2013-10-12 18:05:00,
2013-10-12 13:10:00,64.0,61.0,30.08,ESE,112,0.0,1.0,90,0.01,,---,0.01,VWS V14.00,2013-10-12 18:10:00,
2013-10-12 13:15:00,64.0,61.3,30.07,ESE,112,2.0,3.0,91,0.01,,---,0.01,VWS V14.00,2013-10-12 18:15:00,
2013-10-12 13:20:00,64.0,61.9,30.07,ESE,112,3.0,3.0,93,0.01,,---,0.01,VWS V14.00,2013-10-12 18:20:00,
2013-10-12 13:25:00,64.0,61.9,30.07,East,90,0.0,0.0,93,0.01,,---,0.01,VWS V14.00,2013-10-12 18:25:00,
2013-10-12 13:30:00,64.0,62.2,30.07,ESE,112,3.0,4.0,94,0.01,,---,0.01,VWS V14.00,2013-10-12 18:30:00,
2013-10-12 13:35:00,64.0,62.2,30.06,East,90,5.0,5.0,94,0.01,,---,0.01,VWS V14.00,2013-10-12 18:35:00,
2013-10-12 13:40:00,64.0,62.2,30.07,ESE,112,6.0,7.0,94,0.01,,---,0.01,VWS V14.00,2013-10-12 18:40:00,
2013-10-12 13:45:00,65.0,63.2,30.08,SSE,158,0.0,0.0,94,0.01,,---,0.01,VWS V14.00,2013-10-12 18:45:00,
2013-10-12 13:50:00,65.0,62.9,30.06,SE,135,8.0,8.0,93,0.01,,---,0.01,VWS V14.00,2013-10-12 18:50:00,
2013-10-12 13:55:00,65.0,62.6,30.06,SE,135,5.0,7.0,92,0.00,,---,0.01,VWS V14.00,2013-10-12 18:55:00,
2013-10-12 14:00:00,65.0,62.6,30.06,SSE,158,6.0,6.0,92,0.00,,---,0.01,VWS V14.00,2013-10-12 19:00:00,
2013-10-12 14:05:00,65.0,62.3,30.07,South,180,5.0,6.0,91,0.00,,---,0.01,VWS V14.00,2013-10-12 19:05:00,
2013-10-12 14:10:00,65.0,62.3,30.06,SSE,158,3.0,6.0,91,0.00,,---,0.01,VWS V14.00,2013-10-12 19:10:00,
2013-10-12 14:15:00,65.0,62.0,30.06,SSE,158,6.0,7.0,90,0.00,,---,0.01,VWS V14.00,2013-10-12 19:15:00,
2013-10-12 14:20:00,66.0,62.7,30.06,SSE,158,7.0,8.0,89,0.00,,---,0.01,VWS V14.00,2013-10-12 19:20:00,
2013-10-12 14:25:00,66.0,62.3,30.06,SSE,158,0.0,8.0,88,0.00,,---,0.01,VWS V14.00,2013-10-12 19:25:00,
2013-10-12 14:30:00,66.0,62.3,30.06,SSE,158,0.0,0.0,88,0.00,,---,0.01,VWS V14.00,2013-10-12 19:30:00,
2013-10-12 14:35:00,66.0,62.0,30.06,SSW,202,0.0,0.0,87,0.00,,---,0.01,VWS V14.00,2013-10-12 19:35:00,
2013-10-12 14:40:00,66.0,62.0,30.06,South,180,0.0,0.0,87,0.00,,---,0.01,VWS V14.00,2013-10-12 19:40:00,
2013-10-12 14:45:00,66.0,62.0,30.06,SSW,202,0.0,0.0,87,0.00,,---,0.01,VWS V14.00,2013-10-12 19:45:00,
2013-10-12 14:50:00,66.0,62.0,30.06,SSE,158,0.0,0.0,87,0.00,,---,0.01,VWS V14.00,2013-10-12 19:50:00,
2013-10-12 14:55:00,66.0,62.0,30.06,SSE,158,0.0,0.0,87,0.00,,---,0.01,VWS V14.00,2013-10-12 19:55:00,
2013-10-12 15:00:00,67.0,63.0,30.05,SE,135,0.0,0.0,87,0.00,,---,0.01,VWS V14.00,2013-10-12 20:00:00,
2013-10-12 15:05:00,67.0,62.7,30.05,SSE,158,0.0,0.0,86,0.00,,---,0.01,VWS V14.00,2013-10-12 20:05:00,
2013-10-12 15:10:00,67.0,62.7,30.05,SSE,158,6.0,6.0,86,0.00,,---,0.01,VWS V14.00,2013-10-12 20:10:00,
2013-10-12 15:15:00,67.0,62.3,30.06,South,180,0.0,6.0,85,0.00,,---,0.01,VWS V14.00,2013-10-12 20:15:00,
2013-10-12 15:20:00,67.0,62.3,30.06,South,180,0.0,1.0,85,0.00,,---,0.01,VWS V14.00,2013-10-12 20:20:00,
2013-10-12 15:25:00,68.0,63.0,30.06,SW,225,0.0,0.0,84,0.00,,---,0.01,VWS V14.00,2013-10-12 20:25:00,
2013-10-12 15:30:00,68.0,62.7,30.06,SSW,202,0.0,7.0,83,0.00,,---,0.01,VWS V14.00,2013-10-12 20:30:00,
2013-10-12 15:35:00,68.0,63.0,30.05,SSW,202,0.0,0.0,84,0.00,,---,0.01,VWS V14.00,2013-10-12 20:35:00,
2013-10-12 15:40:00,68.0,63.0,30.05,SW,225,0.0,0.0,84,0.00,,---,0.01,VWS V14.00,2013-10-12 20:40:00,
2013-10-12 15:45:00,68.0,62.7,30.06,SSW,202,0.0,0.0,83,0.00,,---,0.01,VWS V14.00,2013-10-12 20:45:00,
2013-10-12 15:50:00,68.0,62.7,30.05,SSW,202,0.0,0.0,83,0.00,,---,0.01,VWS V14.00,2013-10-12 20:50:00,
2013-10-12 15:55:00,68.0,62.7,30.05,SW,225,0.0,0.0,83,0.00,,---,0.01,VWS V14.00,2013-10-12 20:55:00,
2013-10-12 16:00:00,68.0,62.7,30.06,SSW,202,0.0,0.0,83,0.00,,---,0.01,VWS V14.00,2013-10-12 21:00:00,
2013-10-12 16:05:00,68.0,62.7,30.05,SSW,202,4.0,6.0,83,0.00,,---,0.01,VWS V14.00,2013-10-12 21:05:00,
2013-10-12 16:10:00,68.0,62.3,30.05,SSW,202,0.0,0.0,82,0.00,,---,0.01,VWS V14.00,2013-10-12 21:10:00,
2013-10-12 16:15:00,68.0,62.3,30.06,SSW,202,0.0,0.0,82,0.00,,---,0.01,VWS V14.00,2013-10-12 21:15:00,
2013-10-12 16:20:00,69.0,62.9,30.05,South,180,0.0,7.0,81,0.00,,---,0.01,VWS V14.00,2013-10-12 21:20:00,
2013-10-12 16:25:00,69.0,62.6,30.05,SSW,202,0.0,0.0,80,0.00,,---,0.01,VWS V14.00,2013-10-12 21:25:00,
2013-10-12 16:30:00,69.0,62.6,30.05,SW,225,0.0,1.0,80,0.00,,---,0.01,VWS V14.00,2013-10-12 21:30:00,
2013-10-12 16:35:00,68.0,61.6,30.06,WSW,248,0.0,0.0,80,0.00,,---,0.01,VWS V14.00,2013-10-12 21:35:00,
2013-10-12 16:40:00,68.0,62.0,30.06,WSW,248,0.0,0.0,81,0.00,,---,0.01,VWS V14.00,2013-10-12 21:40:00,
2013-10-12 16:45:00,68.0,62.0,30.06,West,270,0.0,1.0,81,0.00,,---,0.01,VWS V14.00,2013-10-12 21:45:00,
2013-10-12 16:50:00,68.0,62.3,30.06,WSW,248,0.0,1.0,82,0.00,,---,0.01,VWS V14.00,2013-10-12 21:50:00,
2013-10-12 16:55:00,68.0,62.0,30.06,SW,225,8.0,8.0,81,0.00,,---,0.01,VWS V14.00,2013-10-12 21:55:00,
2013-10-12 17:00:00,67.0,61.3,30.06,West,270,0.0,8.0,82,0.00,,---,0.01,VWS V14.00,2013-10-12 22:00:00,
2013-10-12 17:05:00,67.0,61.7,30.07,WSW,248,0.0,0.0,83,0.00,,---,0.01,VWS V14.00,2013-10-12 22:05:00,
2013-10-12 17:10:00,67.0,62.0,30.07,WNW,292,0.0,0.0,84,0.00,,---,0.01,VWS V14.00,2013-10-12 22:10:00,
2013-10-12 17:15:00,66.0,61.4,30.07,WSW,248,0.0,1.0,85,0.00,,---,0.01,VWS V14.00,2013-10-12 22:15:00,
2013-10-12 17:20:00,66.0,61.7,30.07,WSW,248,0.0,0.0,86,0.00,,---,0.01,VWS V14.00,2013-10-12 22:20:00,
2013-10-12 17:25:00,66.0,61.7,30.07,West,270,0.0,0.0,86,0.00,,---,0.01,VWS V14.00,2013-10-12 22:25:00,
2013-10-12 17:30:00,66.0,62.0,30.07,West,270,0.0,0.0,87,0.00,,---,0.01,VWS V14.00,2013-10-12 22:30:00,
2013-10-12 17:35:00,66.0,62.0,30.07,West,270,0.0,0.0,87,0.00,,---,0.01,VWS V14.00,2013-10-12 22:35:00,
2013-10-12 17:40:00,66.0,62.3,30.07,WNW,292,0.0,0.0,88,0.00,,---,0.01,VWS V14.00,2013-10-12 22:40:00,
2013-10-12 17:45:00,66.0,62.7,30.07,NW,315,0.0,0.0,89,0.00,,---,0.01,VWS V14.00,2013-10-12 22:45:00,
2013-10-12 17:50:00,65.0,61.7,30.07,NW,315,0.0,0.0,89,0.00,,---,0.01,VWS V14.00,2013-10-12 22:50:00,
2013-10-12 17:55:00,65.0,61.7,30.07,WNW,292,0.0,1.0,89,0.00,,---,0.01,VWS V14.00,2013-10-12 22:55:00,
2013-10-12 18:00:00,65.0,62.0,30.08,North,0,0.0,0.0,90,0.00,,---,0.01,VWS V14.00,2013-10-12 23:00:00,
2013-10-12 18:05:00,65.0,62.3,30.08,NW,315,4.0,4.0,91,0.00,,---,0.01,VWS V14.00,2013-10-12 23:05:00,
2013-10-12 18:10:00,65.0,62.3,30.08,WNW,292,8.0,8.0,91,0.00,,---,0.01,VWS V14.00,2013-10-12 23:10:00,
2013-10-12 18:15:00,64.0,61.6,30.08,WNW,292,0.0,0.0,92,0.00,,---,0.01,VWS V14.00,2013-10-12 23:15:00,
2013-10-12 18:20:00,64.0,61.6,30.08,NW,315,0.0,0.0,92,0.00,,---,0.01,VWS V14.00,2013-10-12 23:20:00,
2013-10-12 18:25:00,64.0,61.9,30.08,WNW,292,0.0,0.0,93,0.00,,---,0.01,VWS V14.00,2013-10-12 23:25:00,
2013-10-12 18:30:00,64.0,61.9,30.08,WNW,292,3.0,5.0,93,0.00,,---,0.01,VWS V14.00,2013-10-12 23:30:00,
2013-10-12 18:35:00,64.0,61.9,30.08,NNW,338,0.0,0.0,93,0.00,,---,0.01,VWS V14.00,2013-10-12 23:35:00,
2013-10-12 18:40:00,64.0,61.9,30.08,NW,315,0.0,0.0,93,0.00,,---,0.01,VWS V14.00,2013-10-12 23:40:00,
2013-10-12 18:45:00,64.0,61.9,30.08,NW,315,0.0,0.0,93,0.00,,---,0.01,VWS V14.00,2013-10-12 23:45:00,
2013-10-12 18:50:00,64.0,61.9,30.08,NW,315,0.0,0.0,93,0.00,,---,0.01,VWS V14.00,2013-10-12 23:50:00,
2013-10-12 18:55:00,64.0,62.2,30.09,North,0,0.0,0.0,94,0.00,,---,0.01,VWS V14.00,2013-10-12 23:55:00,
2013-10-12 19:00:00,64.0,62.2,30.09,NE,45,0.0,0.0,94,0.00,,---,0.01,VWS V14.00,2013-10-13 00:00:00,
2013-10-12 19:05:00,64.0,62.2,30.09,NE,45,0.0,0.0,94,0.00,,---,0.01,VWS V14.00,2013-10-13 00:05:00,
2013-10-12 19:10:00,64.0,62.2,30.09,NE,45,0.0,0.0,94,0.00,,---,0.01,VWS V14.00,2013-10-13 00:10:00,
2013-10-12 19:15:00,64.0,62.2,30.09,NE,45,0.0,0.0,94,0.00,,---,0.01,VWS V14.00,2013-10-13 00:15:00,
2013-10-12 19:20:00,64.0,62.2,30.09,NE,45,0.0,0.0,94,0.00,,---,0.01,VWS V14.00,2013-10-13 00:20:00,
2013-10-12 19:25:00,64.0,62.2,30.09,NE,45,0.0,0.0,94,0.00,,---,0.01,VWS V14.00,2013-10-13 00:25:00,
2013-10-12 19:30:00,64.0,62.2,30.10,NE,45,0.0,0.0,94,0.00,,---,0.01,VWS V14.00,2013-10-13 00:30:00,
2013-10-12 19:35:00,64.0,62.5,30.10,NE,45,0.0,0.0,95,0.00,,---,0.01,VWS V14.00,2013-10-13 00:35:00,
2013-10-12 19:40:00,64.0,62.5,30.10,NE,45,0.0,0.0,95,0.00,,---,0.01,VWS V14.00,2013-10-13 00:40:00,
2013-10-12 19:45:00,63.0,61.5,30.10,ENE,68,0.0,0.0,95,0.00,,---,0.01,VWS V14.00,2013-10-13 00:45:00,
2013-10-12 19:50:00,63.0,61.5,30.10,ENE,68,0.0,0.0,95,0.00,,---,0.01,VWS V14.00,2013-10-13 00:50:00,
2013-10-12 19:55:00,63.0,61.5,30.11,ENE,68,0.0,0.0,95,0.00,,---,0.01,VWS V14.00,2013-10-13 00:55:00,
2013-10-12 20:00:00,63.0,61.5,30.11,ENE,68,0.0,0.0,95,0.00,,---,0.01,VWS V14.00,2013-10-13 01:00:00,
2013-10-12 20:05:00,63.0,61.8,30.11,ENE,68,0.0,0.0,96,0.00,,---,0.01,VWS V14.00,2013-10-13 01:05:00,
2013-10-12 20:10:00,63.0,61.8,30.11,ENE,68,0.0,0.0,96,0.00,,---,0.01,VWS V14.00,2013-10-13 01:10:00,
2013-10-12 20:15:00,63.0,61.8,30.11,ENE,68,0.0,0.0,96,0.00,,---,0.01,VWS V14.00,2013-10-13 01:15:00,
2013-10-12 20:20:00,63.0,61.8,30.11,ENE,68,0.0,0.0,96,0.00,,---,0.01,VWS V14.00,2013-10-13 01:20:00,
2013-10-12 20:25:00,63.0,61.8,30.12,NE,45,0.0,0.0,96,0.00,,---,0.01,VWS V14.00,2013-10-13 01:25:00,
2013-10-12 20:30:00,63.0,61.8,30.12,NE,45,0.0,0.0,96,0.00,,---,0.01,VWS V14.00,2013-10-13 01:30:00,
2013-10-12 20:35:00,63.0,61.8,30.12,ENE,68,0.0,0.0,96,0.00,,---,0.01,VWS V14.00,2013-10-13 01:35:00,
2013-10-12 20:40:00,62.0,61.1,30.12,ENE,68,0.0,0.0,97,0.00,,---,0.01,VWS V14.00,2013-10-13 01:40:00,
2013-10-12 20:45:00,62.0,61.1,30.12,ENE,68,0.0,0.0,97,0.00,,---,0.01,VWS V14.00,2013-10-13 01:45:00,
2013-10-12 20:50:00,62.0,61.1,30.13,ENE,68,0.0,0.0,97,0.00,,---,0.01,VWS V14.00,2013-10-13 01:50:00,
2013-10-12 20:55:00,62.0,61.1,30.13,ENE,68,0.0,0.0,97,0.00,,---,0.01,VWS V14.00,2013-10-13 01:55:00,
2013-10-12 20:57:00,62.0,61.1,30.13,ENE,68,0.0,0.0,97,0.00,,---,0.01,VWS V14.00,2013-10-13 01:57:00,
2013-10-12 21:02:00,62.0,61.4,30.13,ENE,68,0.0,0.0,98,0.00,,---,0.01,VWS V14.00,2013-10-13 02:02:00,
2013-10-12 21:07:00,62.0,61.4,30.13,NE,45,0.0,0.0,98,0.00,,---,0.01,VWS V14.00,2013-10-13 02:07:00,
2013-10-12 21:12:00,61.0,60.4,30.13,NE,45,0.0,0.0,98,0.00,,---,0.01,VWS V14.00,2013-10-13 02:12:00,
2013-10-12 21:17:00,61.0,60.4,30.13,NE,45,0.0,0.0,98,0.00,,---,0.01,VWS V14.00,2013-10-13 02:17:00,
2013-10-12 21:22:00,61.0,60.7,30.14,NE,45,0.0,0.0,99,0.00,,---,0.01,VWS V14.00,2013-10-13 02:22:00,
2013-10-12 21:27:00,61.0,60.7,30.14,NE,45,0.0,0.0,99,0.00,,---,0.01,VWS V14.00,2013-10-13 02:27:00,
2013-10-12 21:32:00,61.0,60.7,30.14,ENE,68,0.0,0.0,99,0.00,,---,0.01,VWS V14.00,2013-10-13 02:32:00,
2013-10-12 21:37:00,61.0,60.7,30.14,ENE,68,0.0,0.0,99,0.00,,---,0.01,VWS V14.00,2013-10-13 02:37:00,
2013-10-12 21:42:00,60.0,60.0,30.14,NE,45,0.0,0.0,100,0.00,,---,0.01,VWS V14.00,2013-10-13 02:42:00,
2013-10-12 21:47:00,60.0,60.0,30.14,NE,45,0.0,0.0,100,0.00,,---,0.01,VWS V14.00,2013-10-13 02:47:00,
2013-10-12 21:52:00,60.0,60.0,30.15,NE,45,0.0,0.0,100,0.00,,---,0.01,VWS V14.00,2013-10-13 02:52:00,
2013-10-12 21:57:00,59.0,59.0,30.15,NE,45,0.0,0.0,100,0.00,,---,0.01,VWS V14.00,2013-10-13 02:57:00,
2013-10-12 22:02:00,59.0,59.0,30.15,NE,45,0.0,0.0,100,0.00,,---,0.01,VWS V14.00,2013-10-13 03:02:00,
2013-10-12 22:07:00,59.0,59.0,30.15,NW,315,0.0,0.0,100,0.00,,---,0.01,VWS V14.00,2013-10-13 03:07:00,
2013-10-12 22:12:00,59.0,59.0,30.15,NW,315,0.0,0.0,100,0.00,,---,0.01,VWS V14.00,2013-10-13 03:12:00,
2013-10-12 22:17:00,59.0,59.0,30.15,WNW,292,3.0,4.0,100,0.00,,---,0.01,VWS V14.00,2013-10-13 03:17:00,
2013-10-12 22:22:00,59.0,59.0,30.15,WNW,292,0.0,0.0,100,0.00,,---,0.01,VWS V14.00,2013-10-13 03:22:00,
2013-10-12 22:27:00,59.0,59.0,30.16,WNW,292,0.0,0.0,100,0.00,,---,0.01,VWS V14.00,2013-10-13 03:27:00,
2013-10-12 22:32:00,59.0,59.0,30.15,WNW,292,0.0,0.0,100,0.00,,---,0.01,VWS V14.00,2013-10-13 03:32:00,
2013-10-12 22:37:00,58.0,58.0,30.15,WNW,292,0.0,0.0,100,0.00,,---,0.01,VWS V14.00,2013-10-13 03:37:00,
2013-10-12 22:42:00,58.0,58.0,30.15,WNW,292,0.0,0.0,100,0.00,,---,0.01,VWS V14.00,2013-10-13 03:42:00,
2013-10-12 22:47:00,58.0,58.0,30.15,WNW,292,0.0,0.0,100,0.00,,---,0.01,VWS V14.00,2013-10-13 03:47:00,
2013-10-12 22:52:00,58.0,58.0,30.15,WNW,292,0.0,0.0,100,0.00,,---,0.01,VWS V14.00,2013-10-13 03:52:00,
2013-10-12 22:57:00,58.0,58.0,30.15,WNW,292,0.0,0.0,100,0.00,,---,0.01,VWS V14.00,2013-10-13 03:57:00,
2013-10-12 23:01:00,58.0,58.0,30.15,WNW,292,0.0,0.0,100,0.00,,---,0.01,VWS V14.00,2013-10-13 04:01:00,
2013-10-12 23:02:00,58.0,58.0,30.15,WNW,292,0.0,0.0,100,0.00,,---,0.01,VWS V14.00,2013-10-13 04:02:00,
2013-10-12 23:07:00,58.0,58.0,30.15,NNW,338,0.0,0.0,100,0.00,,---,0.01,VWS V14.00,2013-10-13 04:07:00,
2013-10-12 23:12:00,58.0,58.0,30.15,West,270,0.0,0.0,100,0.00,,---,0.01,VWS V14.00,2013-10-13 04:12:00,
2013-10-12 23:17:00,57.0,57.0,30.16,West,270,0.0,0.0,100,0.00,,---,0.01,VWS V14.00,2013-10-13 04:17:00,
2013-10-12 23:22:00,57.0,57.0,30.15,West,270,0.0,0.0,100,0.00,,---,0.01,VWS V14.00,2013-10-13 04:22:00,
2013-10-12 23:27:00,57.0,57.0,30.16,West,270,0.0,0.0,100,0.00,,---,0.01,VWS V14.00,2013-10-13 04:27:00,
2013-10-12 23:32:00,57.0,57.0,30.16,West,270,0.0,0.0,100,0.00,,---,0.01,VWS V14.00,2013-10-13 04:32:00,
2013-10-12 23:37:00,57.0,57.0,30.16,WSW,248,0.0,0.0,100,0.00,,---,0.01,VWS V14.00,2013-10-13 04:37:00,
2013-10-12 23:42:00,57.0,57.0,30.16,West,270,0.0,0.0,100,0.00,,---,0.01,VWS V14.00,2013-10-13 04:42:00,
2013-10-12 23:47:00,57.0,57.0,30.16,West,270,0.0,0.0,100,0.00,,---,0.01,VWS V14.00,2013-10-13 04:47:00,
2013-10-12 23:52:00,57.0,57.0,30.16,West,270,0.0,0.0,100,0.00,,---,0.01,VWS V14.00,2013-10-13 04:52:00,
2013-10-12 23:57:00,57.0,57.0,30.17,WSW,248,0.0,0.0,100,0.00,,---,0.01,VWS V14.00,2013-10-13 04:57:00,